Time;durP1;ratioP1;P1;durP2;ratioP2;P2;SDS_P1;SDS_P2;PMS_P1;PMS_P2;Temp;Humidity;BMP_temperature;BMP_pressure;BME280_temperature;BME280_humidity;BME280_pressure;Samples;Min_cycle;Max_cycle;Signal;HPM_P1;HPM_P2
2022/01/04 00:02:16;;;;;;;10.20;4.03;;;;;;;5.97;100.00;99147.47;7395678;19;20884;-58
2022/01/04 00:04:48;;;;;;;21.90;6.50;;;;;;;6.02;100.00;99145.06;7398479;19;20837;-57
2022/01/04 00:07:18;;;;;;;19.53;5.57;;;;;;;5.97;100.00;99147.47;7392345;19;20439;-59
2022/01/04 00:09:49;;;;;;;13.03;4.57;;;;;;;5.94;100.00;99142.22;7398471;19;20400;-58
2022/01/04 00:15:01;;;;;;;15.50;4.50;;;;;;;5.99;100.00;99138.13;7392477;19;20394;-56
2022/01/04 00:17:30;;;;;;;23.87;5.53;;;;;;;5.98;100.00;99128.72;7396597;19;20380;-59
2022/01/04 00:20:03;;;;;;;18.30;6.30;;;;;;;6.02;100.00;99130.63;7395024;19;20385;-54
2022/01/04 00:22:32;;;;;;;14.97;5.43;;;;;;;6.00;100.00;99132.19;7397956;19;20450;-58
2022/01/04 00:25:02;;;;;;;17.17;6.27;;;;;;;5.97;100.00;99124.44;7395232;19;20669;-57
2022/01/04 00:27:31;;;;;;;13.20;4.23;;;;;;;5.91;100.00;99122.50;7395202;19;20473;-57
2022/01/04 00:30:01;;;;;;;19.67;6.00;;;;;;;5.95;100.00;99106.44;7394355;19;20450;-56
2022/01/04 00:32:30;;;;;;;16.17;5.80;;;;;;;5.95;100.00;99108.16;7397588;19;20393;-58
2022/01/04 00:35:02;;;;;;;22.70;5.27;;;;;;;5.92;100.00;99108.91;7393689;19;20391;-57
2022/01/04 00:37:32;;;;;;;23.27;6.30;;;;;;;5.93;100.00;99102.09;7396466;19;20398;-59
2022/01/04 00:40:01;;;;;;;22.23;6.37;;;;;;;5.90;100.00;99099.44;7398864;19;20388;-55
2022/01/04 00:42:31;;;;;;;13.80;5.90;;;;;;;5.84;100.00;99100.09;7397290;19;20449;-57
2022/01/04 00:45:00;;;;;;;19.10;6.07;;;;;;;5.86;100.00;99097.59;7394805;19;20922;-55
2022/01/04 00:47:41;;;;;;;20.00;5.57;;;;;;;5.84;100.00;99089.84;7400807;19;20656;-57
2022/01/04 00:50:11;;;;;;;20.27;6.90;;;;;;;5.85;100.00;99090.72;7404842;19;20391;-54
2022/01/04 00:52:41;;;;;;;24.90;6.70;;;;;;;5.83;100.00;99092.38;7404630;19;20708;-57
2022/01/04 00:55:11;;;;;;;17.90;5.90;;;;;;;5.75;100.00;99095.50;7401911;19;20396;-55
2022/01/04 00:57:41;;;;;;;17.27;7.20;;;;;;;5.80;100.00;99090.56;7406993;19;20465;-56
2022/01/04 01:00:12;;;;;;;18.77;5.80;;;;;;;5.76;100.00;99081.94;7402271;19;20391;-57
2022/01/04 01:02:42;;;;;;;19.83;5.87;;;;;;;5.79;100.00;99076.91;7404472;19;20630;-56
2022/01/04 01:05:16;;;;;;;18.47;5.90;;;;;;;5.76;100.00;99069.13;7400299;19;20405;-55
2022/01/04 01:07:46;;;;;;;12.73;5.03;;;;;;;5.77;100.00;99067.41;7401994;19;20413;-52
2022/01/04 01:10:34;;;;;;;22.10;8.10;;;;;;;5.82;100.00;99060.78;7403762;19;20405;-55
2022/01/04 01:13:03;;;;;;;17.57;6.87;;;;;;;5.81;100.00;99056.47;7404446;19;20386;-58
2022/01/04 01:15:34;;;;;;;15.50;5.20;;;;;;;5.73;100.00;99051.09;7400330;19;20913;-55
2022/01/04 01:18:03;;;;;;;25.33;6.53;;;;;;;5.76;100.00;99055.44;7402673;19;20414;-57
2022/01/04 01:20:36;;;;;;;14.13;6.03;;;;;;;5.76;100.00;99046.09;7402463;19;20425;-53
2022/01/04 01:23:05;;;;;;;15.93;5.97;;;;;;;5.74;100.00;99060.50;7404122;19;20713;-51
2022/01/04 01:25:35;;;;;;;25.60;7.33;;;;;;;5.75;100.00;99052.00;7400561;19;20441;-58
2022/01/04 01:28:05;;;;;;;24.33;6.87;;;;;;;5.73;100.00;99043.41;7401321;19;20684;-56
2022/01/04 01:30:37;;;;;;;20.23;7.37;;;;;;;5.74;100.00;99041.75;7401057;19;20524;-56
2022/01/04 01:33:07;;;;;;;21.33;6.83;;;;;;;5.71;100.00;99042.50;7403827;19;20455;-57
2022/01/04 01:35:40;;;;;;;35.53;7.60;;;;;;;5.73;100.00;99038.28;7399158;19;20462;-55
2022/01/04 01:38:12;;;;;;;14.07;6.43;;;;;;;5.71;100.00;99033.94;7402558;19;20427;-58
2022/01/04 01:40:41;;;;;;;19.20;8.80;;;;;;;5.77;100.00;99031.59;7400075;19;20498;-54
2022/01/04 01:43:11;;;;;;;23.13;7.60;;;;;;;5.74;100.00;99039.19;7403118;19;20481;-55
2022/01/04 01:45:41;;;;;;;22.40;8.20;;;;;;;5.75;100.00;99023.00;7399678;19;20497;-57
2022/01/04 01:48:11;;;;;;;21.30;9.00;;;;;;;5.78;100.00;99028.22;7400789;19;20426;-58
2022/01/04 01:50:43;;;;;;;17.27;10.10;;;;;;;5.76;100.00;99030.75;7398136;19;20422;-58
2022/01/04 01:53:12;;;;;;;19.13;7.10;;;;;;;5.76;100.00;99029.84;7402813;19;20384;-55
2022/01/04 01:55:42;;;;;;;15.40;6.70;;;;;;;5.75;100.00;99023.84;7400300;19;20735;-54
2022/01/04 01:58:11;;;;;;;19.37;8.53;;;;;;;5.80;100.00;99022.31;7399305;19;20500;-57
2022/01/04 02:00:41;;;;;;;17.80;7.53;;;;;;;5.76;100.00;99020.50;7399185;19;20912;-56
2022/01/04 02:03:11;;;;;;;23.43;8.90;;;;;;;5.83;100.00;99013.03;7402384;19;20403;-55
2022/01/04 02:05:43;;;;;;;56.83;19.37;;;;;;;5.79;100.00;99018.03;7399202;19;20410;-54
2022/01/04 02:08:14;;;;;;;24.63;10.60;;;;;;;5.77;100.00;99006.00;7400431;19;20486;-56
2022/01/04 02:10:44;;;;;;;40.30;13.90;;;;;;;5.82;100.00;98999.34;7399488;19;20422;-56
2022/01/04 02:13:14;;;;;;;59.07;18.47;;;;;;;5.91;100.00;98988.53;7402758;19;20386;-57
2022/01/04 02:15:44;;;;;;;44.67;14.90;;;;;;;5.92;100.00;98987.72;7399797;19;20413;-55
2022/01/04 02:18:13;;;;;;;25.53;8.70;;;;;;;5.89;100.00;98983.38;7400462;19;20495;-57
2022/01/04 02:20:45;;;;;;;59.13;21.83;;;;;;;5.93;100.00;98986.88;7395821;19;20422;-55
2022/01/04 02:23:15;;;;;;;27.10;8.43;;;;;;;5.91;100.00;98978.31;7397343;19;20496;-58
2022/01/04 02:25:45;;;;;;;48.67;10.47;;;;;;;5.90;100.00;98986.81;7397935;19;20474;-52
2022/01/04 02:28:18;;;;;;;17.00;8.43;;;;;;;5.94;100.00;98973.25;7399783;19;20491;-57
2022/01/04 02:30:47;;;;;;;34.67;8.47;;;;;;;5.88;100.00;98968.81;7398645;19;20406;-55
2022/01/04 02:33:17;;;;;;;25.80;9.47;;;;;;;5.93;100.00;98963.84;7401395;19;20420;-56
2022/01/04 02:35:49;;;;;;;47.07;15.00;;;;;;;5.93;100.00;98951.94;7398637;19;20438;-55
2022/01/04 02:38:19;;;;;;;48.93;16.80;;;;;;;5.92;100.00;98950.19;7400687;19;20926;-55
2022/01/04 02:40:48;;;;;;;23.87;8.70;;;;;;;5.92;100.00;98945.06;7400358;19;20519;-53
2022/01/04 02:43:18;;;;;;;43.93;11.73;;;;;;;5.90;100.00;98946.69;7401131;19;20384;-54
2022/01/04 02:45:47;;;;;;;28.30;9.50;;;;;;;5.95;100.00;98941.75;7395290;19;20426;-55
2022/01/04 02:48:17;;;;;;;31.67;10.60;;;;;;;6.00;100.00;98935.06;7399085;19;20427;-53
2022/01/04 02:50:46;;;;;;;20.50;8.23;;;;;;;5.96;100.00;98930.69;7397039;19;20419;-56
2022/01/04 02:53:18;;;;;;;19.60;7.60;;;;;;;5.92;100.00;98936.50;7399773;19;20473;-51
2022/01/04 02:55:48;;;;;;;28.33;9.50;;;;;;;6.02;100.00;98920.66;7396774;19;20418;-56
2022/01/04 02:58:17;;;;;;;29.67;8.57;;;;;;;5.93;100.00;98930.56;7399209;19;20422;-56
2022/01/04 03:00:47;;;;;;;24.30;10.07;;;;;;;5.98;100.00;98921.34;7397415;19;20713;-54
2022/01/04 03:03:17;;;;;;;23.47;9.10;;;;;;;6.01;100.00;98918.00;7400324;19;20852;-50
2022/01/04 03:05:46;;;;;;;28.23;8.23;;;;;;;5.97;100.00;98917.06;7396490;19;20741;-51
2022/01/04 03:08:18;;;;;;;26.07;8.50;;;;;;;5.97;100.00;98906.81;7400618;19;20507;-52
2022/01/04 03:10:47;;;;;;;29.27;9.70;;;;;;;6.04;100.00;98913.00;7395421;19;20407;-56
2022/01/04 03:13:17;;;;;;;33.53;10.70;;;;;;;6.00;100.00;98890.69;7403434;19;20458;-54
2022/01/04 03:15:47;;;;;;;18.70;10.40;;;;;;;5.99;100.00;98884.69;7398190;19;20529;-53
2022/01/04 03:18:17;;;;;;;24.20;8.47;;;;;;;5.91;100.00;98888.69;7398720;19;20727;-54
2022/01/04 03:20:46;;;;;;;21.27;9.23;;;;;;;5.89;100.00;98883.53;7396857;19;20688;-55
2022/01/04 03:23:18;;;;;;;24.37;10.30;;;;;;;5.90;100.00;98889.53;7399852;19;20409;-56
2022/01/04 03:25:47;;;;;;;19.20;9.00;;;;;;;5.94;100.00;98883.66;7396966;19;20418;-53
2022/01/04 03:28:19;;;;;;;22.27;6.80;;;;;;;5.85;100.00;98870.59;7398540;19;20422;-55
2022/01/04 03:30:49;;;;;;;31.23;10.27;;;;;;;5.92;100.00;98868.28;7397097;19;20959;-53
2022/01/04 03:33:18;;;;;;;31.63;9.57;;;;;;;5.93;100.00;98866.56;7399671;19;20862;-56
2022/01/04 03:35:48;;;;;;;31.30;11.53;;;;;;;5.94;100.00;98865.75;7396652;19;20407;-57
2022/01/04 03:38:20;;;;;;;31.37;11.50;;;;;;;6.00;100.00;98871.03;7398303;19;20485;-50
2022/01/04 03:40:50;;;;;;;27.20;9.43;;;;;;;6.01;100.00;98859.13;7395738;19;20419;-52
2022/01/04 03:43:21;;;;;;;27.83;9.40;;;;;;;6.01;100.00;98857.41;7399456;19;20460;-57
2022/01/04 03:45:51;;;;;;;30.73;10.33;;;;;;;6.06;100.00;98844.81;7396151;19;20418;-54
2022/01/04 03:48:23;;;;;;;26.33;8.67;;;;;;;6.01;100.00;98838.66;7398262;19;20433;-56
2022/01/04 03:50:52;;;;;;;19.40;9.47;;;;;;;6.08;100.00;98848.28;7396359;19;20420;-52
2022/01/04 03:53:24;;;;;;;26.53;10.83;;;;;;;6.11;100.00;98842.38;7398949;19;20444;-54
2022/01/04 03:55:54;;;;;;;22.63;8.73;;;;;;;6.03;100.00;98845.59;7395433;19;20409;-52
2022/01/04 03:58:23;;;;;;;25.93;11.30;;;;;;;6.11;100.00;98837.25;7397571;19;20742;-51
2022/01/04 04:00:52;;;;;;;22.77;11.73;;;;;;;6.06;100.00;98827.72;7396023;19;20415;-50
2022/01/04 04:03:22;;;;;;;36.97;12.60;;;;;;;6.01;100.00;98829.25;7398687;19;20407;-51
2022/01/04 04:05:52;;;;;;;20.10;9.70;;;;;;;6.01;100.00;98816.44;7395494;19;20756;-50
2022/01/04 04:08:24;;;;;;;26.87;11.10;;;;;;;5.98;100.00;98830.84;7397242;19;20502;-57
2022/01/04 04:10:53;;;;;;;29.03;11.07;;;;;;;5.98;100.00;98816.38;7394665;19;20437;-51
2022/01/04 04:13:23;;;;;;;25.43;11.50;;;;;;;6.04;100.00;98821.72;7398615;19;20404;-48
2022/01/04 04:15:52;;;;;;;28.40;11.20;;;;;;;6.05;100.00;98809.78;7394924;19;20419;-50
2022/01/04 04:18:22;;;;;;;21.27;8.93;;;;;;;5.98;100.00;98801.03;7396813;19;20901;-54
2022/01/04 04:20:51;;;;;;;31.00;12.10;;;;;;;6.06;100.00;98796.16;7397241;19;20423;-51
2022/01/04 04:23:23;;;;;;;25.87;12.20;;;;;;;6.03;100.00;98794.38;7405847;19;20397;-56
2022/01/04 04:25:53;;;;;;;23.33;10.70;;;;;;;6.09;100.00;98783.44;7401476;19;20485;-52
2022/01/04 04:28:23;;;;;;;26.83;12.43;;;;;;;6.19;100.00;98782.00;7403871;19;20478;-51
2022/01/04 04:30:52;;;;;;;26.40;12.70;;;;;;;6.27;100.00;98772.84;7402585;19;20501;-55
2022/01/04 04:33:22;;;;;;;37.93;13.27;;;;;;;6.20;100.00;98773.47;7405521;19;20397;-56
2022/01/04 04:35:51;;;;;;;31.27;12.83;;;;;;;6.24;100.00;98777.03;7402605;19;20478;-54
2022/01/04 04:38:23;;;;;;;35.70;14.53;;;;;;;6.22;100.00;98774.41;7403808;19;20479;-54
2022/01/04 04:40:53;;;;;;;27.27;13.20;;;;;;;6.24;100.00;98780.44;7401654;19;20506;-50
2022/01/04 04:43:22;;;;;;;31.13;11.03;;;;;;;6.21;100.00;98770.13;7405044;19;20472;-52
2022/01/04 04:45:52;;;;;;;21.10;11.07;;;;;;;6.22;100.00;98766.72;7401890;19;20426;-52
2022/01/04 04:48:21;;;;;;;26.40;11.80;;;;;;;6.18;100.00;98759.78;7403246;19;20874;-56
2022/01/04 04:50:51;;;;;;;40.57;13.10;;;;;;;6.18;100.00;98757.22;7401999;19;20410;-51
2022/01/04 04:53:20;;;;;;;17.87;8.20;;;;;;;6.11;100.00;98755.31;7405049;19;20396;-50
2022/01/04 04:55:52;;;;;;;29.77;12.03;;;;;;;6.15;100.00;98752.03;7400150;19;20423;-54
2022/01/04 04:58:22;;;;;;;31.20;11.27;;;;;;;6.20;100.00;98750.44;7403124;19;20415;-50
2022/01/04 05:00:51;;;;;;;28.73;12.20;;;;;;;6.23;100.00;98750.53;7401698;19;20763;-54
2022/01/04 05:03:21;;;;;;;34.10;11.77;;;;;;;6.19;100.00;98753.81;7406611;19;20424;-51
2022/01/04 05:05:50;;;;;;;27.03;10.10;;;;;;;6.13;100.00;98751.09;7402342;19;20518;-56
2022/01/04 05:08:20;;;;;;;34.37;14.50;;;;;;;6.20;100.00;98745.31;7402912;19;20424;-55
2022/01/04 05:10:49;;;;;;;22.27;10.50;;;;;;;6.20;100.00;98735.06;7400907;19;20969;-57
2022/01/04 05:13:21;;;;;;;27.60;12.93;;;;;;;6.21;100.00;98739.38;7404312;19;20454;-53
2022/01/04 05:15:51;;;;;;;30.20;12.47;;;;;;;6.22;100.00;98729.16;7400980;19;20423;-55
2022/01/04 05:18:20;;;;;;;24.00;11.90;;;;;;;6.26;100.00;98730.09;7402422;19;20427;-52
2022/01/04 05:20:50;;;;;;;29.53;12.03;;;;;;;6.22;100.00;98729.16;7401692;19;20441;-55
2022/01/04 05:23:19;;;;;;;35.57;12.90;;;;;;;6.24;100.00;98721.53;7403964;19;20396;-53
2022/01/04 05:25:49;;;;;;;28.77;10.40;;;;;;;6.19;100.00;98726.53;7400705;19;20429;-54
2022/01/04 05:28:21;;;;;;;28.83;12.40;;;;;;;6.20;100.00;98722.25;7402416;19;20481;-54
2022/01/04 05:30:50;;;;;;;35.60;14.70;;;;;;;6.20;100.00;98710.34;7399349;19;20422;-53
2022/01/04 05:33:20;;;;;;;28.30;12.20;;;;;;;6.17;100.00;98711.94;7400613;19;20387;-54
2022/01/04 05:35:49;;;;;;;30.97;12.50;;;;;;;6.13;100.00;98702.44;7400235;19;20891;-55
2022/01/04 05:38:19;;;;;;;33.97;13.10;;;;;;;6.17;100.00;98699.16;7402213;19;20484;-52
2022/01/04 05:40:48;;;;;;;30.07;11.43;;;;;;;6.13;100.00;98699.88;7397573;19;20490;-52
2022/01/04 05:43:20;;;;;;;26.80;12.53;;;;;;;6.17;100.00;98704.28;7403387;19;20861;-56
2022/01/04 05:45:50;;;;;;;32.40;12.87;;;;;;;6.16;100.00;98695.72;7399375;19;20423;-55
2022/01/04 05:48:21;;;;;;;29.90;13.00;;;;;;;6.16;100.00;98693.16;7405030;19;20504;-53
2022/01/04 05:50:50;;;;;;;32.10;13.63;;;;;;;6.18;100.00;98682.94;7396030;19;20485;-53
2022/01/04 05:53:20;;;;;;;37.63;13.60;;;;;;;6.22;100.00;98692.47;7403445;19;20388;-54
2022/01/04 05:55:49;;;;;;;26.23;12.93;;;;;;;6.16;100.00;98698.28;7398521;19;20425;-53
2022/01/04 05:58:21;;;;;;;38.33;17.07;;;;;;;6.24;100.00;98695.91;7401312;19;20423;-56
2022/01/04 06:00:52;;;;;;;36.83;14.53;;;;;;;6.16;100.00;98697.41;7399186;19;20399;-51
2022/01/04 06:03:21;;;;;;;33.50;14.00;;;;;;;6.16;100.00;98697.41;7402688;19;20393;-55
2022/01/04 06:05:51;;;;;;;36.30;13.23;;;;;;;6.24;100.00;98700.19;7399383;19;20414;-52
2022/01/04 06:08:21;;;;;;;40.57;13.87;;;;;;;6.24;100.00;98706.16;7401095;19;20686;-55
2022/01/04 06:10:54;;;;;;;30.33;13.93;;;;;;;6.28;100.00;98692.63;7396966;19;20412;-54
2022/01/04 06:16:08;;;;;;;30.30;14.60;;;;;;;6.31;100.00;98676.47;7395743;19;20407;-55
2022/01/04 06:18:41;;;;;;;29.10;10.23;;;;;;;6.19;100.00;98685.56;7400220;19;20505;-54
2022/01/04 06:21:11;;;;;;;36.00;17.10;;;;;;;6.26;100.00;98673.75;7398640;19;20424;-54
2022/01/04 06:23:41;;;;;;;24.23;11.60;;;;;;;6.18;100.00;98682.94;7402340;19;20472;-56
2022/01/04 06:26:10;;;;;;;31.53;12.90;;;;;;;6.13;100.00;98671.72;7398970;19;20418;-55
2022/01/04 06:28:42;;;;;;;37.17;14.33;;;;;;;6.11;100.00;98653.78;7400415;19;20500;-54
2022/01/04 06:31:12;;;;;;;34.63;16.00;;;;;;;6.12;100.00;98660.63;7397815;19;20493;-53
2022/01/04 06:33:41;;;;;;;43.87;15.70;;;;;;;6.08;100.00;98656.25;7401413;19;20389;-52
2022/01/04 06:36:11;;;;;;;30.20;13.23;;;;;;;6.08;100.00;98654.56;7398136;19;20684;-53
2022/01/04 06:38:40;;;;;;;28.47;12.43;;;;;;;6.06;100.00;98651.06;7401426;19;20512;-53
2022/01/04 06:41:10;;;;;;;29.53;12.90;;;;;;;6.02;100.00;98644.16;7397948;19;20423;-52
2022/01/04 06:43:39;;;;;;;23.93;11.40;;;;;;;6.04;100.00;98639.94;7400128;19;20461;-53
2022/01/04 06:46:13;;;;;;;32.90;12.40;;;;;;;6.02;100.00;98641.59;7397893;19;20418;-54
2022/01/04 06:48:43;;;;;;;37.93;11.93;;;;;;;6.02;100.00;98646.72;7399366;19;20894;-55
2022/01/04 06:51:12;;;;;;;28.80;14.73;;;;;;;5.97;100.00;98650.81;7397204;19;20425;-53
2022/01/04 06:53:42;;;;;;;37.93;14.00;;;;;;;5.89;100.00;98647.19;7400686;19;20430;-50
2022/01/04 06:56:11;;;;;;;31.23;14.47;;;;;;;5.90;100.00;98643.81;7397810;19;20426;-52
2022/01/04 06:58:41;;;;;;;37.13;17.07;;;;;;;5.90;100.00;98643.81;7398882;19;20688;-52
2022/01/04 07:01:13;;;;;;;40.57;16.97;;;;;;;5.85;100.00;98635.13;7399019;19;20421;-51
2022/01/04 07:03:42;;;;;;;32.77;16.83;;;;;;;5.86;100.00;98647.09;7403065;19;20394;-51
2022/01/04 07:06:12;;;;;;;44.57;19.00;;;;;;;6.11;100.00;98637.53;7397533;19;20422;-53
2022/01/04 07:08:41;;;;;;;34.43;16.13;;;;;;;6.16;100.00;98635.97;7398732;19;20495;-54
2022/01/04 07:11:11;;;;;;;42.30;16.40;;;;;;;6.03;100.00;98625.41;7396791;19;20481;-50
2022/01/04 07:13:40;;;;;;;42.03;16.60;;;;;;;6.03;100.00;98616.84;7400173;19;20457;-54
2022/01/04 07:16:12;;;;;;;37.07;18.50;;;;;;;6.01;100.00;98609.09;7397199;19;20414;-51
2022/01/04 07:18:46;;;;;;;45.47;20.53;;;;;;;6.05;100.00;98613.50;7401196;19;20494;-56
2022/01/04 07:21:16;;;;;;;38.67;19.40;;;;;;;6.06;100.00;98615.22;7394759;19;20897;-51
2022/01/04 07:23:46;;;;;;;49.30;20.27;;;;;;;6.07;100.00;98611.00;7399528;19;20908;-53
2022/01/04 07:26:16;;;;;;;48.27;20.17;;;;;;;6.02;100.00;98602.28;7397527;19;20454;-50
2022/01/04 07:28:46;;;;;;;42.23;17.90;;;;;;;5.87;100.00;98607.88;7398326;19;20435;-47
2022/01/04 07:31:20;;;;;;;42.23;20.67;;;;;;;5.91;100.00;98613.09;7396567;19;20418;-47
2022/01/04 07:33:52;;;;;;;43.60;18.73;;;;;;;5.87;100.00;98615.53;7398353;19;20370;-49
2022/01/04 07:36:22;;;;;;;48.77;22.07;;;;;;;5.84;100.00;98610.38;7393316;19;20495;-48
2022/01/04 07:38:51;;;;;;;59.13;22.87;;;;;;;5.80;100.00;98604.31;7397842;19;20416;-50
2022/01/04 07:41:21;;;;;;;44.80;18.07;;;;;;;5.76;100.00;98600.78;7396390;19;20500;-56
2022/01/04 07:43:50;;;;;;;53.13;22.97;;;;;;;5.78;100.00;98603.38;7399223;19;20389;-52
2022/01/04 07:46:23;;;;;;;49.03;21.13;;;;;;;5.78;100.00;98595.69;7396065;19;20409;-54
2022/01/04 07:48:53;;;;;;;54.23;20.60;;;;;;;5.76;100.00;98594.78;7401556;19;20432;-53
2022/01/04 07:51:22;;;;;;;59.63;22.60;;;;;;;5.76;100.00;98590.56;7396040;19;20421;-50
2022/01/04 07:53:52;;;;;;;50.10;21.20;;;;;;;5.76;100.00;98587.13;7398991;19;20463;-50
2022/01/04 07:56:21;;;;;;;50.23;19.93;;;;;;;5.74;100.00;98591.34;7393601;19;20423;-55
2022/01/04 07:58:52;;;;;;;52.23;21.47;;;;;;;5.73;100.00;98572.53;7397415;19;20424;-52
2022/01/04 08:01:24;;;;;;;59.03;21.10;;;;;;;5.73;100.00;98557.19;7394997;19;20486;-53
2022/01/04 08:03:53;;;;;;;60.03;22.87;;;;;;;5.73;100.00;98562.31;7398784;19;20399;-55
2022/01/04 08:06:23;;;;;;;60.83;21.20;;;;;;;5.72;100.00;98568.25;7393269;19;20406;-52
2022/01/04 08:08:52;;;;;;;51.60;21.03;;;;;;;5.78;100.00;98568.41;7397012;19;20502;-52
2022/01/04 08:11:22;;;;;;;55.50;22.47;;;;;;;5.81;100.00;98563.38;7394265;19;20417;-52
2022/01/04 08:13:51;;;;;;;49.00;21.97;;;;;;;5.78;100.00;98553.06;7398252;19;20392;-53
2022/01/04 08:16:23;;;;;;;54.67;17.00;;;;;;;5.74;100.00;98558.06;7395318;19;20423;-56
2022/01/04 08:18:53;;;;;;;60.43;22.20;;;;;;;5.76;100.00;98544.50;7396776;19;20702;-54
2022/01/04 08:21:38;;;;;;;50.40;22.90;;;;;;;5.83;100.00;98544.66;7394395;19;20437;-53
2022/01/04 08:24:08;;;;;;;50.13;21.63;;;;;;;5.85;100.00;98530.19;7398318;19;20451;-51
2022/01/04 08:26:37;;;;;;;54.43;20.17;;;;;;;5.85;100.00;98527.63;7394675;19;20415;-53
2022/01/04 08:29:07;;;;;;;56.63;22.53;;;;;;;5.88;100.00;98530.25;7396415;19;20871;-53
2022/01/04 08:31:39;;;;;;;54.30;20.40;;;;;;;5.81;100.00;98526.69;7388975;19;20504;-53
2022/01/04 08:34:08;;;;;;;54.87;22.17;;;;;;;5.84;100.00;98520.78;7398074;19;20393;-50
2022/01/04 08:36:39;;;;;;;52.03;20.90;;;;;;;5.85;100.00;98527.63;7390551;19;20649;-57
2022/01/04 08:39:14;;;;;;;55.67;20.27;;;;;;;5.82;100.00;98515.63;7396009;19;20906;-52
2022/01/04 08:41:45;;;;;;;48.93;18.07;;;;;;;5.86;100.00;98524.25;7394749;19;20433;-53
2022/01/04 08:44:15;;;;;;;62.43;20.00;;;;;;;5.86;100.00;98519.13;7397960;19;20394;-55
2022/01/04 08:46:47;;;;;;;51.27;21.20;;;;;;;5.98;100.00;98509.19;7393711;19;20533;-48
2022/01/04 08:49:16;;;;;;;35.87;16.67;;;;;;;5.94;100.00;98502.25;7395326;19;20419;-54
2022/01/04 08:51:46;;;;;;;50.93;20.53;;;;;;;5.97;100.00;98496.34;7389417;19;20499;-52
2022/01/04 08:54:15;;;;;;;69.90;20.77;;;;;;;5.95;100.00;98499.72;7397614;19;20451;-47
2022/01/04 08:56:45;;;;;;;52.27;22.10;;;;;;;5.91;100.00;98502.19;7394056;19;20474;-51
2022/01/04 08:59:15;;;;;;;53.10;20.23;;;;;;;5.93;100.00;98508.19;7395235;19;20476;-48
2022/01/04 09:01:47;;;;;;;52.40;20.57;;;;;;;5.89;100.00;98504.69;7394552;19;20803;-54
2022/01/04 09:04:16;;;;;;;52.00;23.13;;;;;;;5.93;100.00;98503.09;7397205;19;20413;-49
2022/01/04 09:06:46;;;;;;;41.63;18.30;;;;;;;5.91;100.00;98503.03;7395791;19;20509;-49
2022/01/04 09:09:16;;;;;;;58.00;22.43;;;;;;;5.98;100.00;98495.50;7402648;19;20437;-50
2022/01/04 09:11:46;;;;;;;46.53;17.60;;;;;;;5.99;100.00;98485.31;7399605;19;20442;-50
2022/01/04 09:14:26;;;;;;;55.37;23.40;;;;;;;6.05;100.00;98480.38;7404311;19;20676;-52
2022/01/04 09:19:41;;;;;;;55.43;19.33;;;;;;;6.00;100.00;98461.44;7405190;19;20432;-53
2022/01/04 09:22:11;;;;;;;36.33;13.80;;;;;;;5.99;100.00;98466.53;7400918;19;20445;-52
2022/01/04 09:24:40;;;;;;;46.43;20.80;;;;;;;6.07;100.00;98463.34;7404009;19;20392;-50
2022/01/04 09:27:10;;;;;;;43.80;17.97;;;;;;;6.04;100.00;98463.28;7400102;19;20423;-51
2022/01/04 09:29:39;;;;;;;44.77;20.03;;;;;;;6.13;100.00;98472.00;7401459;19;20416;-54
2022/01/04 09:32:13;;;;;;;44.87;19.83;;;;;;;6.11;100.00;98473.66;7396599;19;20425;-50
2022/01/04 09:34:42;;;;;;;46.93;21.17;;;;;;;6.14;100.00;98476.28;7403794;19;20460;-55
2022/01/04 09:37:12;;;;;;;46.30;21.17;;;;;;;6.13;100.00;98472.88;7398906;19;20502;-51
2022/01/04 09:39:42;;;;;;;52.63;21.30;;;;;;;6.19;100.00;98474.69;7401126;19;20993;-53
2022/01/04 09:42:11;;;;;;;40.20;19.67;;;;;;;6.18;100.00;98471.28;7400267;19;20432;-55
2022/01/04 09:44:41;;;;;;;50.07;21.20;;;;;;;6.22;100.00;98464.53;7403253;19;20659;-55
2022/01/04 09:47:13;;;;;;;39.27;15.67;;;;;;;6.19;100.00;98467.00;7399555;19;20434;-57
2022/01/04 09:49:42;;;;;;;51.40;19.93;;;;;;;6.16;100.00;98465.25;7400659;19;20413;-50
2022/01/04 09:52:15;;;;;;;46.80;20.23;;;;;;;6.19;100.00;98473.00;7396684;19;20517;-50
2022/01/04 09:54:45;;;;;;;52.40;21.43;;;;;;;6.23;100.00;98473.94;7401931;19;20406;-53
2022/01/04 09:57:16;;;;;;;44.67;21.27;;;;;;;6.22;100.00;98461.97;7403114;19;20445;-54
2022/01/04 09:59:46;;;;;;;41.47;18.50;;;;;;;6.20;100.00;98468.75;7403725;19;20434;-48
2022/01/04 10:02:20;;;;;;;42.07;19.17;;;;;;;6.22;100.00;98473.06;7398756;19;20432;-52
2022/01/04 10:04:50;;;;;;;46.77;18.73;;;;;;;6.24;100.00;98470.56;7402528;19;20385;-51
2022/01/04 10:07:23;;;;;;;37.50;18.30;;;;;;;6.22;100.00;98472.22;7396871;19;20479;-57
2022/01/04 10:09:52;;;;;;;43.77;18.30;;;;;;;6.21;100.00;98466.22;7402126;19;20458;-53
2022/01/04 10:12:23;;;;;;;47.33;19.60;;;;;;;6.21;100.00;98475.63;7401872;19;20521;-53
2022/01/04 10:14:55;;;;;;;46.43;19.23;;;;;;;6.25;100.00;98463.75;7402340;19;20453;-53
2022/01/04 10:17:31;;;;;;;40.70;19.10;;;;;;;6.22;100.00;98459.41;7400788;19;21233;-52
2022/01/04 10:20:02;;;;;;;28.50;12.93;;;;;;;6.16;100.00;98469.53;7394782;19;20389;-50
2022/01/04 10:22:34;;;;;;;39.57;17.90;;;;;;;6.19;100.00;98446.53;7401552;19;20392;-50
2022/01/04 10:25:13;;;;;;;46.03;18.73;;;;;;;6.24;100.00;98450.06;7398521;19;20386;-50
2022/01/04 10:27:44;;;;;;;44.53;17.43;;;;;;;6.22;100.00;98451.75;7401185;19;20424;-48
2022/01/04 10:30:27;;;;;;;32.20;13.07;;;;;;;6.15;100.00;98439.63;7398279;19;20388;-53
2022/01/04 10:33:01;;;;;;;32.27;14.83;;;;;;;6.20;100.00;98440.56;7400379;19;20669;-52
2022/01/04 10:35:40;;;;;;;35.63;15.57;;;;;;;6.22;100.00;98446.63;7397956;19;20420;-52
2022/01/04 10:38:17;;;;;;;43.30;16.97;;;;;;;6.20;100.00;98443.13;7400074;19;20477;-55
2022/01/04 10:40:47;;;;;;;40.23;16.23;;;;;;;6.16;100.00;98434.53;7398347;19;20479;-56
2022/01/04 10:43:19;;;;;;;36.73;13.33;;;;;;;6.15;100.00;98439.63;7404054;19;20473;-53
2022/01/04 10:45:50;;;;;;;41.77;15.67;;;;;;;6.16;100.00;98433.69;7396256;19;20416;-52
2022/01/04 10:48:25;;;;;;;42.53;17.63;;;;;;;6.18;100.00;98420.06;7391419;19;20422;-48
2022/01/04 10:50:56;;;;;;;37.00;14.80;;;;;;;6.23;100.00;98417.59;7401112;19;20453;-54
2022/01/04 10:53:30;;;;;;;38.40;17.93;;;;;;;6.33;100.00;98404.19;7396041;19;20440;-52
2022/01/04 10:56:03;;;;;;;40.13;19.43;;;;;;;6.30;100.00;98403.25;7399536;19;20391;-54
2022/01/04 10:58:36;;;;;;;34.40;15.60;;;;;;;6.29;100.00;98407.50;7395709;19;20678;-57
2022/01/04 11:01:08;;;;;;;45.80;18.67;;;;;;;6.28;100.00;98400.66;7400661;19;20402;-53
2022/01/04 11:03:42;;;;;;;36.00;18.60;;;;;;;6.43;100.00;98399.25;7400034;19;20454;-50
2022/01/04 11:06:13;;;;;;;35.33;15.97;;;;;;;6.39;100.00;98397.44;7402280;19;20394;-53
2022/01/04 11:08:44;;;;;;;25.83;11.10;;;;;;;6.33;100.00;98400.75;7395182;19;20439;-54
2022/01/04 11:11:14;;;;;;;32.63;14.87;;;;;;;6.43;100.00;98396.66;7400886;19;20479;-53
2022/01/04 11:13:44;;;;;;;23.07;11.33;;;;;;;6.35;100.00;98394.81;7392396;19;20441;-55
2022/01/04 11:16:13;;;;;;;27.90;12.30;;;;;;;6.33;100.00;98399.06;7399010;19;20454;-52
2022/01/04 11:18:49;;;;;;;26.53;13.33;;;;;;;6.33;100.00;98398.19;7394834;19;20418;-54
2022/01/04 11:21:21;;;;;;;20.37;11.07;;;;;;;6.22;100.00;98395.41;7399879;19;20384;-50
2022/01/04 11:23:52;;;;;;;24.30;11.90;;;;;;;6.18;100.00;98388.47;7400515;19;20607;-53
2022/01/04 11:26:22;;;;;;;27.03;10.73;;;;;;;6.17;100.00;98397.00;7400014;19;20396;-51
2022/01/04 11:28:53;;;;;;;23.00;11.43;;;;;;;6.21;100.00;98391.13;7394266;19;20425;-54
2022/01/04 11:31:37;;;;;;;25.17;9.33;;;;;;;6.13;100.00;98384.94;7399883;19;20642;-53
2022/01/04 11:34:19;;;;;;;22.73;9.70;;;;;;;6.13;100.00;98390.06;7397363;19;20486;-54
2022/01/04 11:36:51;;;;;;;21.47;9.07;;;;;;;6.12;100.00;98383.22;7396775;19;20454;-54
2022/01/04 11:39:35;;;;;;;20.43;10.83;;;;;;;6.09;100.00;98389.13;7400310;19;20420;-51
2022/01/04 11:42:07;;;;;;;22.10;10.80;;;;;;;6.06;100.00;98394.19;7394925;19;20413;-53
2022/01/04 11:44:44;;;;;;;23.67;11.67;;;;;;;6.03;100.00;98389.88;7399889;19;20470;-55